sensor_id;sensor_type;location;lat;lon;timestamp;P1;durP1;ratioP1;P2;durP2;ratioP2
45893;SDS011;31603;51.148;16.932;2023-03-29T00:01:37;47.80;;;18.42;;
45893;SDS011;31603;51.148;16.932;2023-03-29T00:04:06;52.88;;;20.42;;
45893;SDS011;31603;51.148;16.932;2023-03-29T00:06:33;49.53;;;19.60;;
45893;SDS011;31603;51.148;16.932;2023-03-29T00:08:59;46.50;;;19.23;;
45893;SDS011;31603;51.148;16.932;2023-03-29T00:11:29;52.05;;;20.52;;
45893;SDS011;31603;51.148;16.932;2023-03-29T00:13:55;52.60;;;20.23;;
45893;SDS011;31603;51.148;16.932;2023-03-29T00:16:22;48.97;;;20.73;;
45893;SDS011;31603;51.148;16.932;2023-03-29T00:18:49;45.37;;;18.10;;
45893;SDS011;31603;51.148;16.932;2023-03-29T00:21:15;44.80;;;18.65;;
45893;SDS011;31603;51.148;16.932;2023-03-29T00:23:42;48.08;;;18.95;;
45893;SDS011;31603;51.148;16.932;2023-03-29T00:26:08;50.67;;;19.00;;
45893;SDS011;31603;51.148;16.932;2023-03-29T00:28:34;49.63;;;20.73;;
45893;SDS011;31603;51.148;16.932;2023-03-29T00:31:04;47.45;;;19.00;;
45893;SDS011;31603;51.148;16.932;2023-03-29T00:33:31;50.90;;;19.40;;
45893;SDS011;31603;51.148;16.932;2023-03-29T00:35:58;49.47;;;19.63;;
45893;SDS011;31603;51.148;16.932;2023-03-29T00:38:25;47.20;;;18.80;;
45893;SDS011;31603;51.148;16.932;2023-03-29T00:40:51;47.80;;;18.77;;
45893;SDS011;31603;51.148;16.932;2023-03-29T00:43:18;47.67;;;19.40;;
45893;SDS011;31603;51.148;16.932;2023-03-29T00:45:44;52.27;;;19.37;;
45893;SDS011;31603;51.148;16.932;2023-03-29T00:48:11;52.93;;;20.00;;
45893;SDS011;31603;51.148;16.932;2023-03-29T00:50:40;48.63;;;19.57;;
45893;SDS011;31603;51.148;16.932;2023-03-29T00:53:10;49.67;;;19.08;;
45893;SDS011;31603;51.148;16.932;2023-03-29T00:55:39;48.30;;;19.27;;
45893;SDS011;31603;51.148;16.932;2023-03-29T00:58:07;48.23;;;17.53;;
45893;SDS011;31603;51.148;16.932;2023-03-29T01:00:37;42.87;;;18.13;;
45893;SDS011;31603;51.148;16.932;2023-03-29T01:03:05;52.58;;;20.02;;
45893;SDS011;31603;51.148;16.932;2023-03-29T01:05:37;46.23;;;18.80;;
45893;SDS011;31603;51.148;16.932;2023-03-29T01:08:06;46.83;;;20.10;;
45893;SDS011;31603;51.148;16.932;2023-03-29T01:10:37;46.40;;;19.67;;
45893;SDS011;31603;51.148;16.932;2023-03-29T01:13:07;47.90;;;18.75;;
45893;SDS011;31603;51.148;16.932;2023-03-29T01:15:34;46.33;;;18.13;;
45893;SDS011;31603;51.148;16.932;2023-03-29T01:18:01;41.87;;;18.87;;
45893;SDS011;31603;51.148;16.932;2023-03-29T01:20:32;57.83;;;19.07;;
45893;SDS011;31603;51.148;16.932;2023-03-29T01:23:06;54.73;;;18.53;;
45893;SDS011;31603;51.148;16.932;2023-03-29T01:25:39;48.07;;;17.83;;
45893;SDS011;31603;51.148;16.932;2023-03-29T01:28:09;55.07;;;18.27;;
45893;SDS011;31603;51.148;16.932;2023-03-29T01:30:37;43.40;;;16.33;;
45893;SDS011;31603;51.148;16.932;2023-03-29T01:33:06;49.93;;;16.43;;
45893;SDS011;31603;51.148;16.932;2023-03-29T01:35:35;45.33;;;16.47;;
45893;SDS011;31603;51.148;16.932;2023-03-29T01:38:05;51.27;;;16.67;;
45893;SDS011;31603;51.148;16.932;2023-03-29T01:40:32;59.60;;;19.60;;
45893;SDS011;31603;51.148;16.932;2023-03-29T01:43:01;42.73;;;17.97;;
45893;SDS011;31603;51.148;16.932;2023-03-29T01:45:32;38.53;;;16.63;;
45893;SDS011;31603;51.148;16.932;2023-03-29T01:48:01;40.55;;;17.35;;
45893;SDS011;31603;51.148;16.932;2023-03-29T01:50:33;41.77;;;16.70;;
45893;SDS011;31603;51.148;16.932;2023-03-29T01:55:30;40.07;;;16.47;;
45893;SDS011;31603;51.148;16.932;2023-03-29T01:57:57;38.60;;;16.23;;
45893;SDS011;31603;51.148;16.932;2023-03-29T02:00:25;35.97;;;15.17;;
45893;SDS011;31603;51.148;16.932;2023-03-29T02:02:55;33.00;;;14.63;;
45893;SDS011;31603;51.148;16.932;2023-03-29T02:05:24;34.60;;;15.90;;
45893;SDS011;31603;51.148;16.932;2023-03-29T02:07:51;35.20;;;15.97;;
45893;SDS011;31603;51.148;16.932;2023-03-29T02:10:19;36.77;;;16.50;;
45893;SDS011;31603;51.148;16.932;2023-03-29T02:12:46;33.00;;;16.03;;
45893;SDS011;31603;51.148;16.932;2023-03-29T02:15:13;34.97;;;17.00;;
45893;SDS011;31603;51.148;16.932;2023-03-29T02:17:40;38.83;;;17.87;;
45893;SDS011;31603;51.148;16.932;2023-03-29T02:20:10;37.60;;;15.48;;
45893;SDS011;31603;51.148;16.932;2023-03-29T02:22:44;35.10;;;16.67;;
45893;SDS011;31603;51.148;16.932;2023-03-29T02:25:11;35.00;;;15.60;;
45893;SDS011;31603;51.148;16.932;2023-03-29T02:27:37;38.43;;;17.03;;
45893;SDS011;31603;51.148;16.932;2023-03-29T02:30:04;38.60;;;16.70;;
45893;SDS011;31603;51.148;16.932;2023-03-29T02:32:31;35.73;;;16.63;;
45893;SDS011;31603;51.148;16.932;2023-03-29T02:35:00;37.53;;;17.50;;
45893;SDS011;31603;51.148;16.932;2023-03-29T02:37:31;32.57;;;16.70;;
45893;SDS011;31603;51.148;16.932;2023-03-29T02:40:00;34.73;;;16.97;;
45893;SDS011;31603;51.148;16.932;2023-03-29T02:42:36;39.03;;;18.33;;
45893;SDS011;31603;51.148;16.932;2023-03-29T02:45:03;41.07;;;17.30;;
45893;SDS011;31603;51.148;16.932;2023-03-29T02:47:30;33.73;;;17.10;;
45893;SDS011;31603;51.148;16.932;2023-03-29T02:49:58;38.33;;;18.43;;
45893;SDS011;31603;51.148;16.932;2023-03-29T02:52:25;32.63;;;16.57;;
45893;SDS011;31603;51.148;16.932;2023-03-29T02:54:54;38.87;;;17.63;;
45893;SDS011;31603;51.148;16.932;2023-03-29T02:57:21;36.77;;;15.53;;
45893;SDS011;31603;51.148;16.932;2023-03-29T02:59:50;33.20;;;15.93;;
45893;SDS011;31603;51.148;16.932;2023-03-29T03:02:16;33.80;;;16.37;;
45893;SDS011;31603;51.148;16.932;2023-03-29T03:04:43;36.70;;;15.30;;
45893;SDS011;31603;51.148;16.932;2023-03-29T03:07:09;35.10;;;16.20;;
45893;SDS011;31603;51.148;16.932;2023-03-29T03:09:35;36.27;;;16.17;;
45893;SDS011;31603;51.148;16.932;2023-03-29T03:12:03;43.23;;;16.00;;
45893;SDS011;31603;51.148;16.932;2023-03-29T03:14:30;34.70;;;15.83;;
45893;SDS011;31603;51.148;16.932;2023-03-29T03:16:56;34.33;;;15.37;;
45893;SDS011;31603;51.148;16.932;2023-03-29T03:19:23;31.85;;;16.17;;
45893;SDS011;31603;51.148;16.932;2023-03-29T03:21:49;32.80;;;16.20;;
45893;SDS011;31603;51.148;16.932;2023-03-29T03:24:15;34.30;;;15.88;;
45893;SDS011;31603;51.148;16.932;2023-03-29T03:26:42;41.27;;;16.80;;
45893;SDS011;31603;51.148;16.932;2023-03-29T03:29:11;33.50;;;15.63;;
45893;SDS011;31603;51.148;16.932;2023-03-29T03:31:37;31.87;;;14.83;;
45893;SDS011;31603;51.148;16.932;2023-03-29T03:34:05;28.52;;;12.82;;
45893;SDS011;31603;51.148;16.932;2023-03-29T03:36:32;30.37;;;15.67;;
45893;SDS011;31603;51.148;16.932;2023-03-29T03:38:58;33.58;;;15.93;;
45893;SDS011;31603;51.148;16.932;2023-03-29T03:41:25;37.73;;;15.10;;
45893;SDS011;31603;51.148;16.932;2023-03-29T03:43:52;43.00;;;17.02;;
45893;SDS011;31603;51.148;16.932;2023-03-29T03:46:19;35.57;;;16.20;;
45893;SDS011;31603;51.148;16.932;2023-03-29T03:48:46;42.70;;;17.40;;
45893;SDS011;31603;51.148;16.932;2023-03-29T03:51:12;48.43;;;18.73;;
45893;SDS011;31603;51.148;16.932;2023-03-29T03:53:38;44.63;;;19.13;;
45893;SDS011;31603;51.148;16.932;2023-03-29T03:56:05;86.03;;;34.00;;
45893;SDS011;31603;51.148;16.932;2023-03-29T03:58:32;118.37;;;43.63;;
45893;SDS011;31603;51.148;16.932;2023-03-29T04:00:59;71.47;;;29.03;;
45893;SDS011;31603;51.148;16.932;2023-03-29T04:03:27;73.77;;;29.23;;
45893;SDS011;31603;51.148;16.932;2023-03-29T04:05:53;88.20;;;37.53;;
45893;SDS011;31603;51.148;16.932;2023-03-29T04:08:20;130.57;;;57.90;;
45893;SDS011;31603;51.148;16.932;2023-03-29T04:10:50;97.77;;;44.37;;
45893;SDS011;31603;51.148;16.932;2023-03-29T04:13:16;73.13;;;34.90;;
45893;SDS011;31603;51.148;16.932;2023-03-29T04:15:43;63.37;;;28.37;;
45893;SDS011;31603;51.148;16.932;2023-03-29T04:18:10;60.10;;;26.53;;
45893;SDS011;31603;51.148;16.932;2023-03-29T04:20:38;60.60;;;26.93;;
45893;SDS011;31603;51.148;16.932;2023-03-29T04:23:04;87.13;;;40.43;;
45893;SDS011;31603;51.148;16.932;2023-03-29T04:25:30;166.07;;;75.23;;
45893;SDS011;31603;51.148;16.932;2023-03-29T04:27:57;88.43;;;42.03;;
45893;SDS011;31603;51.148;16.932;2023-03-29T04:30:23;66.07;;;29.27;;
45893;SDS011;31603;51.148;16.932;2023-03-29T04:32:49;64.83;;;26.67;;
45893;SDS011;31603;51.148;16.932;2023-03-29T04:35:16;61.73;;;27.93;;
45893;SDS011;31603;51.148;16.932;2023-03-29T04:37:43;63.40;;;29.90;;
45893;SDS011;31603;51.148;16.932;2023-03-29T04:40:10;76.87;;;38.80;;
45893;SDS011;31603;51.148;16.932;2023-03-29T04:42:38;87.83;;;44.40;;
45893;SDS011;31603;51.148;16.932;2023-03-29T04:45:06;75.40;;;36.80;;
45893;SDS011;31603;51.148;16.932;2023-03-29T04:47:33;50.80;;;22.30;;
45893;SDS011;31603;51.148;16.932;2023-03-29T04:50:00;49.20;;;22.93;;
45893;SDS011;31603;51.148;16.932;2023-03-29T04:52:26;45.63;;;21.03;;
45893;SDS011;31603;51.148;16.932;2023-03-29T04:54:58;49.30;;;21.53;;
45893;SDS011;31603;51.148;16.932;2023-03-29T04:57:24;50.33;;;21.07;;
45893;SDS011;31603;51.148;16.932;2023-03-29T04:59:51;46.47;;;21.30;;
45893;SDS011;31603;51.148;16.932;2023-03-29T05:02:17;49.50;;;21.70;;
45893;SDS011;31603;51.148;16.932;2023-03-29T05:04:43;48.83;;;20.27;;
45893;SDS011;31603;51.148;16.932;2023-03-29T05:07:10;50.97;;;20.23;;
45893;SDS011;31603;51.148;16.932;2023-03-29T05:09:37;42.63;;;19.17;;
45893;SDS011;31603;51.148;16.932;2023-03-29T05:12:05;43.53;;;19.00;;
45893;SDS011;31603;51.148;16.932;2023-03-29T05:14:31;49.23;;;20.97;;
45893;SDS011;31603;51.148;16.932;2023-03-29T05:16:58;54.30;;;24.97;;
45893;SDS011;31603;51.148;16.932;2023-03-29T05:19:25;52.73;;;22.53;;
45893;SDS011;31603;51.148;16.932;2023-03-29T05:21:52;47.83;;;21.63;;
45893;SDS011;31603;51.148;16.932;2023-03-29T05:24:18;52.97;;;23.03;;
45893;SDS011;31603;51.148;16.932;2023-03-29T05:26:45;54.42;;;25.55;;
45893;SDS011;31603;51.148;16.932;2023-03-29T05:29:13;48.17;;;21.53;;
45893;SDS011;31603;51.148;16.932;2023-03-29T05:31:39;41.70;;;17.47;;
45893;SDS011;31603;51.148;16.932;2023-03-29T05:34:05;35.20;;;17.20;;
45893;SDS011;31603;51.148;16.932;2023-03-29T05:36:32;36.00;;;15.50;;
45893;SDS011;31603;51.148;16.932;2023-03-29T05:38:58;32.13;;;13.95;;
45893;SDS011;31603;51.148;16.932;2023-03-29T05:41:25;33.35;;;15.40;;
45893;SDS011;31603;51.148;16.932;2023-03-29T05:43:52;35.80;;;14.32;;
45893;SDS011;31603;51.148;16.932;2023-03-29T05:46:19;31.45;;;12.73;;
45893;SDS011;31603;51.148;16.932;2023-03-29T05:48:45;33.38;;;12.77;;
45893;SDS011;31603;51.148;16.932;2023-03-29T05:51:12;38.88;;;12.85;;
45893;SDS011;31603;51.148;16.932;2023-03-29T05:53:38;31.33;;;11.48;;
45893;SDS011;31603;51.148;16.932;2023-03-29T05:56:05;33.63;;;13.88;;
45893;SDS011;31603;51.148;16.932;2023-03-29T05:58:32;29.05;;;12.32;;
45893;SDS011;31603;51.148;16.932;2023-03-29T06:01:00;24.42;;;10.80;;
45893;SDS011;31603;51.148;16.932;2023-03-29T06:03:29;30.02;;;11.18;;
45893;SDS011;31603;51.148;16.932;2023-03-29T06:05:56;24.63;;;10.07;;
45893;SDS011;31603;51.148;16.932;2023-03-29T06:08:23;26.70;;;10.05;;
45893;SDS011;31603;51.148;16.932;2023-03-29T06:10:50;22.33;;;9.55;;
45893;SDS011;31603;51.148;16.932;2023-03-29T06:13:16;28.30;;;10.43;;
45893;SDS011;31603;51.148;16.932;2023-03-29T06:15:42;23.83;;;9.18;;
45893;SDS011;31603;51.148;16.932;2023-03-29T06:18:09;22.10;;;8.60;;
45893;SDS011;31603;51.148;16.932;2023-03-29T06:20:36;31.80;;;9.27;;
45893;SDS011;31603;51.148;16.932;2023-03-29T06:23:02;23.58;;;9.02;;
45893;SDS011;31603;51.148;16.932;2023-03-29T06:25:29;33.42;;;13.05;;
45893;SDS011;31603;51.148;16.932;2023-03-29T06:27:55;28.13;;;10.48;;
45893;SDS011;31603;51.148;16.932;2023-03-29T06:30:22;22.98;;;9.45;;
45893;SDS011;31603;51.148;16.932;2023-03-29T06:32:49;25.88;;;9.38;;
45893;SDS011;31603;51.148;16.932;2023-03-29T06:35:15;24.83;;;9.70;;
45893;SDS011;31603;51.148;16.932;2023-03-29T06:37:42;26.77;;;10.10;;
45893;SDS011;31603;51.148;16.932;2023-03-29T06:40:13;18.98;;;8.88;;
45893;SDS011;31603;51.148;16.932;2023-03-29T06:42:40;29.05;;;9.88;;
45893;SDS011;31603;51.148;16.932;2023-03-29T06:45:07;20.35;;;9.30;;
45893;SDS011;31603;51.148;16.932;2023-03-29T06:47:33;25.25;;;9.10;;
45893;SDS011;31603;51.148;16.932;2023-03-29T06:49:59;18.63;;;8.07;;
45893;SDS011;31603;51.148;16.932;2023-03-29T06:52:25;15.32;;;7.88;;
45893;SDS011;31603;51.148;16.932;2023-03-29T06:54:53;19.75;;;7.70;;
45893;SDS011;31603;51.148;16.932;2023-03-29T06:57:19;17.30;;;8.07;;
45893;SDS011;31603;51.148;16.932;2023-03-29T06:59:46;19.75;;;7.70;;
45893;SDS011;31603;51.148;16.932;2023-03-29T07:02:13;21.52;;;7.25;;
45893;SDS011;31603;51.148;16.932;2023-03-29T07:04:39;18.55;;;7.78;;
45893;SDS011;31603;51.148;16.932;2023-03-29T07:07:06;21.75;;;9.38;;
45893;SDS011;31603;51.148;16.932;2023-03-29T07:09:43;19.15;;;8.93;;
45893;SDS011;31603;51.148;16.932;2023-03-29T07:12:11;19.88;;;8.15;;
45893;SDS011;31603;51.148;16.932;2023-03-29T07:14:38;18.95;;;6.65;;
45893;SDS011;31603;51.148;16.932;2023-03-29T07:17:04;16.33;;;6.68;;
45893;SDS011;31603;51.148;16.932;2023-03-29T07:19:30;19.90;;;6.53;;
45893;SDS011;31603;51.148;16.932;2023-03-29T07:21:57;18.25;;;8.10;;
45893;SDS011;31603;51.148;16.932;2023-03-29T07:24:23;19.75;;;7.78;;
45893;SDS011;31603;51.148;16.932;2023-03-29T07:26:50;16.08;;;6.65;;
45893;SDS011;31603;51.148;16.932;2023-03-29T07:29:18;20.90;;;7.25;;
45893;SDS011;31603;51.148;16.932;2023-03-29T07:31:44;15.63;;;6.22;;
45893;SDS011;31603;51.148;16.932;2023-03-29T07:34:11;20.55;;;7.40;;
45893;SDS011;31603;51.148;16.932;2023-03-29T07:36:37;18.50;;;6.75;;
45893;SDS011;31603;51.148;16.932;2023-03-29T07:39:04;19.42;;;5.93;;
45893;SDS011;31603;51.148;16.932;2023-03-29T07:41:30;15.32;;;5.88;;
45893;SDS011;31603;51.148;16.932;2023-03-29T07:43:57;16.50;;;6.35;;
45893;SDS011;31603;51.148;16.932;2023-03-29T07:48:58;15.80;;;5.45;;
45893;SDS011;31603;51.148;16.932;2023-03-29T07:51:24;14.38;;;5.57;;
45893;SDS011;31603;51.148;16.932;2023-03-29T07:53:51;15.38;;;6.68;;
45893;SDS011;31603;51.148;16.932;2023-03-29T07:56:17;13.68;;;5.72;;
45893;SDS011;31603;51.148;16.932;2023-03-29T07:58:44;17.83;;;6.20;;
45893;SDS011;31603;51.148;16.932;2023-03-29T08:01:10;9.63;;;5.00;;
45893;SDS011;31603;51.148;16.932;2023-03-29T08:03:39;12.18;;;5.63;;
45893;SDS011;31603;51.148;16.932;2023-03-29T08:06:07;9.95;;;5.63;;
45893;SDS011;31603;51.148;16.932;2023-03-29T08:08:33;11.73;;;5.45;;
45893;SDS011;31603;51.148;16.932;2023-03-29T08:11:00;10.02;;;5.05;;
45893;SDS011;31603;51.148;16.932;2023-03-29T08:13:26;12.27;;;5.78;;
45893;SDS011;31603;51.148;16.932;2023-03-29T08:15:53;10.93;;;4.97;;
45893;SDS011;31603;51.148;16.932;2023-03-29T08:18:19;18.25;;;5.45;;
45893;SDS011;31603;51.148;16.932;2023-03-29T08:20:45;14.60;;;4.05;;
45893;SDS011;31603;51.148;16.932;2023-03-29T08:23:13;13.57;;;4.25;;
45893;SDS011;31603;51.148;16.932;2023-03-29T08:25:39;10.55;;;4.10;;
45893;SDS011;31603;51.148;16.932;2023-03-29T08:28:06;10.10;;;3.90;;
45893;SDS011;31603;51.148;16.932;2023-03-29T08:30:32;10.63;;;4.30;;
45893;SDS011;31603;51.148;16.932;2023-03-29T08:32:58;19.65;;;5.45;;
45893;SDS011;31603;51.148;16.932;2023-03-29T08:35:25;8.93;;;4.13;;
45893;SDS011;31603;51.148;16.932;2023-03-29T08:37:51;10.43;;;3.83;;
45893;SDS011;31603;51.148;16.932;2023-03-29T08:40:21;9.15;;;3.90;;
45893;SDS011;31603;51.148;16.932;2023-03-29T08:42:56;10.68;;;3.72;;
45893;SDS011;31603;51.148;16.932;2023-03-29T08:45:26;6.68;;;3.42;;
45893;SDS011;31603;51.148;16.932;2023-03-29T08:47:57;10.82;;;4.13;;
45893;SDS011;31603;51.148;16.932;2023-03-29T08:50:26;9.48;;;4.53;;
45893;SDS011;31603;51.148;16.932;2023-03-29T08:52:56;9.23;;;4.15;;
45893;SDS011;31603;51.148;16.932;2023-03-29T08:55:25;9.77;;;3.92;;
45893;SDS011;31603;51.148;16.932;2023-03-29T08:57:53;8.68;;;3.88;;
45893;SDS011;31603;51.148;16.932;2023-03-29T09:00:20;5.40;;;3.40;;
45893;SDS011;31603;51.148;16.932;2023-03-29T09:02:50;9.38;;;4.07;;
45893;SDS011;31603;51.148;16.932;2023-03-29T09:05:19;9.40;;;4.03;;
45893;SDS011;31603;51.148;16.932;2023-03-29T09:07:47;8.77;;;3.72;;
45893;SDS011;31603;51.148;16.932;2023-03-29T09:10:14;8.55;;;4.03;;
45893;SDS011;31603;51.148;16.932;2023-03-29T09:12:49;7.80;;;3.67;;
45893;SDS011;31603;51.148;16.932;2023-03-29T09:15:20;9.20;;;4.25;;
45893;SDS011;31603;51.148;16.932;2023-03-29T09:17:50;9.60;;;4.30;;
45893;SDS011;31603;51.148;16.932;2023-03-29T09:20:21;9.95;;;3.83;;
45893;SDS011;31603;51.148;16.932;2023-03-29T09:22:50;6.72;;;3.80;;
45893;SDS011;31603;51.148;16.932;2023-03-29T09:25:23;10.70;;;4.13;;
45893;SDS011;31603;51.148;16.932;2023-03-29T09:27:55;9.55;;;4.18;;
45893;SDS011;31603;51.148;16.932;2023-03-29T09:32:51;7.35;;;4.18;;
45893;SDS011;31603;51.148;16.932;2023-03-29T09:35:20;8.85;;;4.28;;
45893;SDS011;31603;51.148;16.932;2023-03-29T09:37:47;8.32;;;3.90;;
45893;SDS011;31603;51.148;16.932;2023-03-29T09:40:14;8.82;;;4.00;;
45893;SDS011;31603;51.148;16.932;2023-03-29T09:42:42;9.43;;;4.20;;
45893;SDS011;31603;51.148;16.932;2023-03-29T09:45:10;9.15;;;4.03;;
45893;SDS011;31603;51.148;16.932;2023-03-29T09:47:37;8.35;;;4.35;;
45893;SDS011;31603;51.148;16.932;2023-03-29T09:50:07;8.18;;;4.63;;
45893;SDS011;31603;51.148;16.932;2023-03-29T09:52:35;9.18;;;4.40;;
45893;SDS011;31603;51.148;16.932;2023-03-29T09:55:01;8.30;;;4.20;;
45893;SDS011;31603;51.148;16.932;2023-03-29T09:57:29;9.50;;;4.40;;
45893;SDS011;31603;51.148;16.932;2023-03-29T09:59:56;7.85;;;4.28;;
45893;SDS011;31603;51.148;16.932;2023-03-29T10:02:28;8.90;;;4.45;;
45893;SDS011;31603;51.148;16.932;2023-03-29T10:04:55;7.78;;;3.83;;
45893;SDS011;31603;51.148;16.932;2023-03-29T10:07:31;10.70;;;4.47;;
45893;SDS011;31603;51.148;16.932;2023-03-29T10:09:59;9.25;;;4.82;;
45893;SDS011;31603;51.148;16.932;2023-03-29T10:12:26;9.50;;;3.70;;
45893;SDS011;31603;51.148;16.932;2023-03-29T10:14:52;13.50;;;4.28;;
45893;SDS011;31603;51.148;16.932;2023-03-29T10:17:20;9.15;;;4.45;;
45893;SDS011;31603;51.148;16.932;2023-03-29T10:19:49;9.27;;;3.95;;
45893;SDS011;31603;51.148;16.932;2023-03-29T10:22:16;9.98;;;3.80;;
45893;SDS011;31603;51.148;16.932;2023-03-29T10:24:46;13.32;;;4.45;;
45893;SDS011;31603;51.148;16.932;2023-03-29T10:27:12;9.10;;;3.90;;
45893;SDS011;31603;51.148;16.932;2023-03-29T10:29:39;13.15;;;3.63;;
45893;SDS011;31603;51.148;16.932;2023-03-29T10:32:12;8.15;;;3.40;;
45893;SDS011;31603;51.148;16.932;2023-03-29T10:34:39;5.53;;;3.45;;
45893;SDS011;31603;51.148;16.932;2023-03-29T10:37:07;6.65;;;3.33;;
45893;SDS011;31603;51.148;16.932;2023-03-29T10:39:36;10.73;;;3.45;;
45893;SDS011;31603;51.148;16.932;2023-03-29T10:42:04;13.90;;;3.70;;
45893;SDS011;31603;51.148;16.932;2023-03-29T10:44:33;9.27;;;3.65;;
45893;SDS011;31603;51.148;16.932;2023-03-29T10:47:06;11.55;;;4.40;;
45893;SDS011;31603;51.148;16.932;2023-03-29T10:49:38;10.23;;;3.85;;
45893;SDS011;31603;51.148;16.932;2023-03-29T10:52:05;6.72;;;4.00;;
45893;SDS011;31603;51.148;16.932;2023-03-29T10:54:32;8.40;;;3.42;;
45893;SDS011;31603;51.148;16.932;2023-03-29T10:56:59;8.95;;;4.45;;
45893;SDS011;31603;51.148;16.932;2023-03-29T10:59:28;7.65;;;3.50;;
45893;SDS011;31603;51.148;16.932;2023-03-29T11:04:38;7.07;;;3.95;;
45893;SDS011;31603;51.148;16.932;2023-03-29T11:07:18;9.50;;;3.70;;
45893;SDS011;31603;51.148;16.932;2023-03-29T11:09:48;7.90;;;3.83;;
45893;SDS011;31603;51.148;16.932;2023-03-29T11:12:17;7.90;;;3.83;;
45893;SDS011;31603;51.148;16.932;2023-03-29T11:14:51;11.40;;;3.95;;
45893;SDS011;31603;51.148;16.932;2023-03-29T11:17:23;7.63;;;3.60;;
45893;SDS011;31603;51.148;16.932;2023-03-29T11:19:57;8.18;;;4.30;;
45893;SDS011;31603;51.148;16.932;2023-03-29T11:22:28;13.10;;;3.92;;
45893;SDS011;31603;51.148;16.932;2023-03-29T11:25:03;8.65;;;3.22;;
45893;SDS011;31603;51.148;16.932;2023-03-29T11:27:33;7.55;;;3.97;;
45893;SDS011;31603;51.148;16.932;2023-03-29T11:30:06;9.48;;;3.80;;
45893;SDS011;31603;51.148;16.932;2023-03-29T11:32:33;9.88;;;3.58;;
45893;SDS011;31603;51.148;16.932;2023-03-29T11:35:05;7.22;;;3.70;;
45893;SDS011;31603;51.148;16.932;2023-03-29T11:37:34;10.48;;;3.75;;
45893;SDS011;31603;51.148;16.932;2023-03-29T11:40:07;6.25;;;3.65;;
45893;SDS011;31603;51.148;16.932;2023-03-29T11:42:38;5.40;;;3.22;;
45893;SDS011;31603;51.148;16.932;2023-03-29T11:45:09;8.85;;;4.07;;
45893;SDS011;31603;51.148;16.932;2023-03-29T11:47:37;8.40;;;3.42;;
45893;SDS011;31603;51.148;16.932;2023-03-29T11:50:08;6.53;;;3.30;;
45893;SDS011;31603;51.148;16.932;2023-03-29T11:52:40;5.82;;;3.33;;
45893;SDS011;31603;51.148;16.932;2023-03-29T11:55:10;7.88;;;3.00;;
45893;SDS011;31603;51.148;16.932;2023-03-29T11:57:39;7.93;;;3.50;;
45893;SDS011;31603;51.148;16.932;2023-03-29T12:00:09;7.78;;;4.50;;
45893;SDS011;31603;51.148;16.932;2023-03-29T12:02:38;8.30;;;4.03;;
45893;SDS011;31603;51.148;16.932;2023-03-29T12:05:08;6.63;;;3.85;;
45893;SDS011;31603;51.148;16.932;2023-03-29T12:07:38;4.53;;;2.60;;
45893;SDS011;31603;51.148;16.932;2023-03-29T12:10:07;8.25;;;3.15;;
45893;SDS011;31603;51.148;16.932;2023-03-29T12:12:39;6.10;;;3.35;;
45893;SDS011;31603;51.148;16.932;2023-03-29T12:15:08;8.45;;;3.55;;
45893;SDS011;31603;51.148;16.932;2023-03-29T12:17:36;4.63;;;2.80;;
45893;SDS011;31603;51.148;16.932;2023-03-29T12:20:06;4.90;;;2.85;;
45893;SDS011;31603;51.148;16.932;2023-03-29T12:22:35;5.50;;;3.00;;
45893;SDS011;31603;51.148;16.932;2023-03-29T12:25:02;7.72;;;4.10;;
45893;SDS011;31603;51.148;16.932;2023-03-29T12:27:29;9.40;;;3.00;;
45893;SDS011;31603;51.148;16.932;2023-03-29T12:30:03;8.77;;;3.00;;
45893;SDS011;31603;51.148;16.932;2023-03-29T12:32:40;10.07;;;2.88;;
45893;SDS011;31603;51.148;16.932;2023-03-29T12:35:15;5.47;;;2.92;;
45893;SDS011;31603;51.148;16.932;2023-03-29T12:37:44;5.68;;;2.42;;
45893;SDS011;31603;51.148;16.932;2023-03-29T12:40:19;6.30;;;2.90;;
45893;SDS011;31603;51.148;16.932;2023-03-29T12:42:50;6.43;;;3.03;;
45893;SDS011;31603;51.148;16.932;2023-03-29T12:45:18;6.53;;;3.65;;
45893;SDS011;31603;51.148;16.932;2023-03-29T12:47:45;5.18;;;2.58;;
45893;SDS011;31603;51.148;16.932;2023-03-29T12:50:15;6.20;;;2.83;;
45893;SDS011;31603;51.148;16.932;2023-03-29T12:52:47;5.38;;;3.05;;
45893;SDS011;31603;51.148;16.932;2023-03-29T12:55:19;7.65;;;3.20;;
45893;SDS011;31603;51.148;16.932;2023-03-29T12:57:55;11.32;;;3.25;;
45893;SDS011;31603;51.148;16.932;2023-03-29T13:00:26;5.03;;;3.10;;
45893;SDS011;31603;51.148;16.932;2023-03-29T13:02:59;4.45;;;2.78;;
45893;SDS011;31603;51.148;16.932;2023-03-29T13:05:27;6.63;;;3.50;;
45893;SDS011;31603;51.148;16.932;2023-03-29T13:07:54;5.78;;;3.42;;
45893;SDS011;31603;51.148;16.932;2023-03-29T13:10:33;6.10;;;3.20;;
45893;SDS011;31603;51.148;16.932;2023-03-29T13:13:07;6.00;;;3.08;;
45893;SDS011;31603;51.148;16.932;2023-03-29T13:15:36;5.35;;;2.65;;
45893;SDS011;31603;51.148;16.932;2023-03-29T13:18:05;5.68;;;2.95;;
45893;SDS011;31603;51.148;16.932;2023-03-29T13:20:38;6.53;;;3.42;;
45893;SDS011;31603;51.148;16.932;2023-03-29T13:23:16;6.65;;;3.25;;
45893;SDS011;31603;51.148;16.932;2023-03-29T13:25:48;6.50;;;3.17;;
45893;SDS011;31603;51.148;16.932;2023-03-29T13:28:17;7.70;;;2.47;;
45893;SDS011;31603;51.148;16.932;2023-03-29T13:30:50;5.80;;;2.63;;
45893;SDS011;31603;51.148;16.932;2023-03-29T13:36:04;4.18;;;2.50;;
45893;SDS011;31603;51.148;16.932;2023-03-29T13:38:35;4.68;;;2.70;;
45893;SDS011;31603;51.148;16.932;2023-03-29T13:41:10;6.00;;;3.78;;
45893;SDS011;31603;51.148;16.932;2023-03-29T13:43:50;10.48;;;3.35;;
45893;SDS011;31603;51.148;16.932;2023-03-29T13:46:20;6.05;;;3.15;;
45893;SDS011;31603;51.148;16.932;2023-03-29T13:51:33;7.80;;;3.50;;
45893;SDS011;31603;51.148;16.932;2023-03-29T13:54:00;5.97;;;2.95;;
45893;SDS011;31603;51.148;16.932;2023-03-29T13:56:29;4.68;;;2.45;;
45893;SDS011;31603;51.148;16.932;2023-03-29T13:58:58;6.25;;;2.63;;
45893;SDS011;31603;51.148;16.932;2023-03-29T14:01:30;5.30;;;2.97;;
45893;SDS011;31603;51.148;16.932;2023-03-29T14:04:01;7.97;;;2.92;;
45893;SDS011;31603;51.148;16.932;2023-03-29T14:06:30;4.28;;;2.85;;
45893;SDS011;31603;51.148;16.932;2023-03-29T14:08:57;5.60;;;3.05;;
45893;SDS011;31603;51.148;16.932;2023-03-29T14:11:25;6.53;;;2.83;;
45893;SDS011;31603;51.148;16.932;2023-03-29T14:13:53;8.40;;;3.65;;
45893;SDS011;31603;51.148;16.932;2023-03-29T14:16:21;6.38;;;3.30;;
45893;SDS011;31603;51.148;16.932;2023-03-29T14:18:49;7.47;;;3.13;;
45893;SDS011;31603;51.148;16.932;2023-03-29T14:21:16;4.60;;;3.38;;
45893;SDS011;31603;51.148;16.932;2023-03-29T14:23:45;4.50;;;2.80;;
45893;SDS011;31603;51.148;16.932;2023-03-29T14:26:13;5.90;;;2.90;;
45893;SDS011;31603;51.148;16.932;2023-03-29T14:28:42;5.85;;;2.78;;
45893;SDS011;31603;51.148;16.932;2023-03-29T14:31:15;6.28;;;3.25;;
45893;SDS011;31603;51.148;16.932;2023-03-29T14:33:41;3.70;;;2.70;;
45893;SDS011;31603;51.148;16.932;2023-03-29T14:36:11;10.80;;;3.58;;
45893;SDS011;31603;51.148;16.932;2023-03-29T14:38:38;6.32;;;2.95;;
45893;SDS011;31603;51.148;16.932;2023-03-29T14:41:04;6.78;;;2.88;;
45893;SDS011;31603;51.148;16.932;2023-03-29T14:43:31;5.45;;;2.97;;